sensor_id;sensor_type;location;lat;lon;timestamp;temperature;humidity
68766;DHT22;55756;45.582;11.484;2023-04-01T00:00:52;14.70;61.00
68766;DHT22;55756;45.582;11.484;2023-04-01T00:03:19;14.70;60.90
68766;DHT22;55756;45.582;11.484;2023-04-01T00:05:45;14.60;60.90
68766;DHT22;55756;45.582;11.484;2023-04-01T00:08:11;14.60;61.10
68766;DHT22;55756;45.582;11.484;2023-04-01T00:10:37;14.60;61.20
68766;DHT22;55756;45.582;11.484;2023-04-01T00:13:03;14.60;61.30
68766;DHT22;55756;45.582;11.484;2023-04-01T00:15:29;14.60;61.40
68766;DHT22;55756;45.582;11.484;2023-04-01T00:17:55;14.50;61.40
68766;DHT22;55756;45.582;11.484;2023-04-01T00:20:20;14.50;61.50
68766;DHT22;55756;45.582;11.484;2023-04-01T00:22:46;14.50;61.40
68766;DHT22;55756;45.582;11.484;2023-04-01T00:25:12;14.50;61.30
68766;DHT22;55756;45.582;11.484;2023-04-01T00:27:38;14.50;61.30
68766;DHT22;55756;45.582;11.484;2023-04-01T00:30:04;14.50;61.50
68766;DHT22;55756;45.582;11.484;2023-04-01T00:32:31;14.50;61.40
68766;DHT22;55756;45.582;11.484;2023-04-01T00:34:57;14.50;61.40
68766;DHT22;55756;45.582;11.484;2023-04-01T00:37:26;14.50;61.50
68766;DHT22;55756;45.582;11.484;2023-04-01T00:39:52;14.50;61.10
68766;DHT22;55756;45.582;11.484;2023-04-01T00:42:18;14.50;61.00
68766;DHT22;55756;45.582;11.484;2023-04-01T00:44:49;14.40;61.00
68766;DHT22;55756;45.582;11.484;2023-04-01T00:47:16;14.40;61.00
68766;DHT22;55756;45.582;11.484;2023-04-01T00:49:52;14.30;61.40
68766;DHT22;55756;45.582;11.484;2023-04-01T00:52:21;14.30;61.50
68766;DHT22;55756;45.582;11.484;2023-04-01T00:54:52;14.30;61.40
68766;DHT22;55756;45.582;11.484;2023-04-01T00:57:23;14.30;61.30
68766;DHT22;55756;45.582;11.484;2023-04-01T00:59:52;14.30;61.30
68766;DHT22;55756;45.582;11.484;2023-04-01T01:02:21;14.30;61.20
68766;DHT22;55756;45.582;11.484;2023-04-01T01:04:47;14.30;60.90
68766;DHT22;55756;45.582;11.484;2023-04-01T01:10:19;14.30;61.20
68766;DHT22;55756;45.582;11.484;2023-04-01T01:15:51;14.20;61.50
68766;DHT22;55756;45.582;11.484;2023-04-01T01:29:52;14.20;61.10
68766;DHT22;55756;45.582;11.484;2023-04-01T01:38:00;14.20;60.90
68766;DHT22;55756;45.582;11.484;2023-04-01T01:40:29;14.20;60.80
68766;DHT22;55756;45.582;11.484;2023-04-01T01:43:01;14.20;61.10
68766;DHT22;55756;45.582;11.484;2023-04-01T01:45:29;14.20;61.20
68766;DHT22;55756;45.582;11.484;2023-04-01T01:47:56;14.20;61.00
68766;DHT22;55756;45.582;11.484;2023-04-01T01:50:24;14.20;61.00
68766;DHT22;55756;45.582;11.484;2023-04-01T01:53:04;14.20;60.80
68766;DHT22;55756;45.582;11.484;2023-04-01T01:55:34;14.20;60.80
68766;DHT22;55756;45.582;11.484;2023-04-01T01:58:39;14.10;61.00
68766;DHT22;55756;45.582;11.484;2023-04-01T02:01:14;14.20;60.80
68766;DHT22;55756;45.582;11.484;2023-04-01T02:03:42;14.20;60.80
68766;DHT22;55756;45.582;11.484;2023-04-01T02:06:13;14.20;60.70
68766;DHT22;55756;45.582;11.484;2023-04-01T02:08:51;14.20;60.60
68766;DHT22;55756;45.582;11.484;2023-04-01T02:11:28;14.10;60.90
68766;DHT22;55756;45.582;11.484;2023-04-01T02:16:32;14.10;61.00
68766;DHT22;55756;45.582;11.484;2023-04-01T02:19:01;14.10;61.00
68766;DHT22;55756;45.582;11.484;2023-04-01T02:21:31;14.10;61.00
68766;DHT22;55756;45.582;11.484;2023-04-01T02:24:01;14.10;60.90
68766;DHT22;55756;45.582;11.484;2023-04-01T02:26:27;14.10;61.00
68766;DHT22;55756;45.582;11.484;2023-04-01T02:28:55;14.10;61.20
68766;DHT22;55756;45.582;11.484;2023-04-01T02:31:23;14.10;60.70
68766;DHT22;55756;45.582;11.484;2023-04-01T02:33:49;14.10;60.80
68766;DHT22;55756;45.582;11.484;2023-04-01T02:36:16;14.10;60.90
68766;DHT22;55756;45.582;11.484;2023-04-01T02:38:44;14.10;61.30
68766;DHT22;55756;45.582;11.484;2023-04-01T02:41:11;14.10;61.40
68766;DHT22;55756;45.582;11.484;2023-04-01T02:43:37;14.10;61.60
68766;DHT22;55756;45.582;11.484;2023-04-01T02:46:03;14.10;61.50
68766;DHT22;55756;45.582;11.484;2023-04-01T02:48:29;14.00;61.50
68766;DHT22;55756;45.582;11.484;2023-04-01T02:50:54;14.00;61.60
68766;DHT22;55756;45.582;11.484;2023-04-01T02:53:21;14.00;61.40
68766;DHT22;55756;45.582;11.484;2023-04-01T02:55:47;14.00;61.50
68766;DHT22;55756;45.582;11.484;2023-04-01T02:58:16;13.90;61.70
68766;DHT22;55756;45.582;11.484;2023-04-01T03:00:42;13.90;61.80
68766;DHT22;55756;45.582;11.484;2023-04-01T03:03:09;13.90;61.60
68766;DHT22;55756;45.582;11.484;2023-04-01T03:05:35;13.90;61.40
68766;DHT22;55756;45.582;11.484;2023-04-01T03:08:01;13.80;61.80
68766;DHT22;55756;45.582;11.484;2023-04-01T03:10:28;13.80;61.50
68766;DHT22;55756;45.582;11.484;2023-04-01T03:12:53;13.80;61.50
68766;DHT22;55756;45.582;11.484;2023-04-01T03:15:20;13.80;61.40
68766;DHT22;55756;45.582;11.484;2023-04-01T03:17:46;13.80;61.30
68766;DHT22;55756;45.582;11.484;2023-04-01T03:20:13;13.80;61.10
68766;DHT22;55756;45.582;11.484;2023-04-01T03:22:39;13.80;61.30
68766;DHT22;55756;45.582;11.484;2023-04-01T03:25:06;13.80;61.10
68766;DHT22;55756;45.582;11.484;2023-04-01T03:27:33;13.70;61.10
68766;DHT22;55756;45.582;11.484;2023-04-01T03:30:02;13.70;61.10
68766;DHT22;55756;45.582;11.484;2023-04-01T03:32:29;13.70;61.30
68766;DHT22;55756;45.582;11.484;2023-04-01T03:34:55;13.60;61.30
68766;DHT22;55756;45.582;11.484;2023-04-01T03:37:22;13.70;60.90
68766;DHT22;55756;45.582;11.484;2023-04-01T03:39:48;13.60;60.80
68766;DHT22;55756;45.582;11.484;2023-04-01T03:42:14;13.60;60.90
68766;DHT22;55756;45.582;11.484;2023-04-01T03:44:40;13.50;60.80
68766;DHT22;55756;45.582;11.484;2023-04-01T03:47:08;13.50;60.90
68766;DHT22;55756;45.582;11.484;2023-04-01T03:49:37;13.50;60.70
68766;DHT22;55756;45.582;11.484;2023-04-01T03:52:03;13.50;60.70
68766;DHT22;55756;45.582;11.484;2023-04-01T03:54:29;13.50;60.60
68766;DHT22;55756;45.582;11.484;2023-04-01T03:56:54;13.50;60.80
68766;DHT22;55756;45.582;11.484;2023-04-01T03:59:23;13.40;60.80
68766;DHT22;55756;45.582;11.484;2023-04-01T04:01:49;13.40;60.80
68766;DHT22;55756;45.582;11.484;2023-04-01T04:04:14;13.40;60.80
68766;DHT22;55756;45.582;11.484;2023-04-01T04:06:40;13.40;61.00
68766;DHT22;55756;45.582;11.484;2023-04-01T04:09:06;13.40;61.00
68766;DHT22;55756;45.582;11.484;2023-04-01T04:11:32;13.40;60.80
68766;DHT22;55756;45.582;11.484;2023-04-01T04:14:01;13.40;60.60
68766;DHT22;55756;45.582;11.484;2023-04-01T04:16:27;13.30;60.90
68766;DHT22;55756;45.582;11.484;2023-04-01T04:18:57;13.30;61.00
68766;DHT22;55756;45.582;11.484;2023-04-01T04:21:23;13.30;61.00
68766;DHT22;55756;45.582;11.484;2023-04-01T04:23:49;13.30;61.00
68766;DHT22;55756;45.582;11.484;2023-04-01T04:26:17;13.20;61.30
68766;DHT22;55756;45.582;11.484;2023-04-01T04:28:51;13.20;61.60
68766;DHT22;55756;45.582;11.484;2023-04-01T04:31:19;13.20;61.50
68766;DHT22;55756;45.582;11.484;2023-04-01T04:33:46;13.20;61.20
68766;DHT22;55756;45.582;11.484;2023-04-01T04:36:12;13.10;61.10
68766;DHT22;55756;45.582;11.484;2023-04-01T04:38:38;13.10;61.20
68766;DHT22;55756;45.582;11.484;2023-04-01T04:41:11;13.10;61.30
68766;DHT22;55756;45.582;11.484;2023-04-01T04:43:40;13.10;62.00
68766;DHT22;55756;45.582;11.484;2023-04-01T04:46:10;13.10;62.40
68766;DHT22;55756;45.582;11.484;2023-04-01T04:48:36;13.20;62.70
68766;DHT22;55756;45.582;11.484;2023-04-01T04:51:02;13.20;63.20
68766;DHT22;55756;45.582;11.484;2023-04-01T04:53:29;13.20;63.20
68766;DHT22;55756;45.582;11.484;2023-04-01T04:55:55;13.20;62.60
68766;DHT22;55756;45.582;11.484;2023-04-01T04:58:30;13.20;61.30
68766;DHT22;55756;45.582;11.484;2023-04-01T05:00:56;13.10;60.70
68766;DHT22;55756;45.582;11.484;2023-04-01T05:03:27;12.90;60.60
68766;DHT22;55756;45.582;11.484;2023-04-01T05:05:53;12.90;61.20
68766;DHT22;55756;45.582;11.484;2023-04-01T05:08:20;12.80;61.40
68766;DHT22;55756;45.582;11.484;2023-04-01T05:10:46;12.90;61.60
68766;DHT22;55756;45.582;11.484;2023-04-01T05:13:12;12.80;62.00
68766;DHT22;55756;45.582;11.484;2023-04-01T05:15:39;12.80;62.20
68766;DHT22;55756;45.582;11.484;2023-04-01T05:18:05;12.70;62.60
68766;DHT22;55756;45.582;11.484;2023-04-01T05:20:30;12.80;62.40
68766;DHT22;55756;45.582;11.484;2023-04-01T05:23:00;12.80;62.30
68766;DHT22;55756;45.582;11.484;2023-04-01T05:25:26;12.80;62.50
68766;DHT22;55756;45.582;11.484;2023-04-01T05:27:52;12.80;62.40
68766;DHT22;55756;45.582;11.484;2023-04-01T05:30:18;12.80;62.50
68766;DHT22;55756;45.582;11.484;2023-04-01T05:32:58;12.80;62.30
68766;DHT22;55756;45.582;11.484;2023-04-01T05:35:24;12.90;62.10
68766;DHT22;55756;45.582;11.484;2023-04-01T05:37:50;12.90;62.20
68766;DHT22;55756;45.582;11.484;2023-04-01T05:40:16;12.90;62.30
68766;DHT22;55756;45.582;11.484;2023-04-01T05:42:41;12.80;62.50
68766;DHT22;55756;45.582;11.484;2023-04-01T05:45:07;12.80;62.70
68766;DHT22;55756;45.582;11.484;2023-04-01T05:48:00;12.80;61.50
68766;DHT22;55756;45.582;11.484;2023-04-01T05:50:28;12.70;61.30
68766;DHT22;55756;45.582;11.484;2023-04-01T05:52:54;12.70;61.40
68766;DHT22;55756;45.582;11.484;2023-04-01T05:55:20;12.80;61.40
68766;DHT22;55756;45.582;11.484;2023-04-01T05:57:49;12.70;61.40
68766;DHT22;55756;45.582;11.484;2023-04-01T06:00:16;12.80;61.30
68766;DHT22;55756;45.582;11.484;2023-04-01T06:02:42;12.80;61.40
68766;DHT22;55756;45.582;11.484;2023-04-01T06:07:45;12.70;61.70
68766;DHT22;55756;45.582;11.484;2023-04-01T06:10:17;12.70;62.10
68766;DHT22;55756;45.582;11.484;2023-04-01T06:13:24;12.70;62.20
68766;DHT22;55756;45.582;11.484;2023-04-01T06:21:35;12.80;62.60
68766;DHT22;55756;45.582;11.484;2023-04-01T06:32:41;12.80;63.90
68766;DHT22;55756;45.582;11.484;2023-04-01T06:35:27;12.70;64.60
68766;DHT22;55756;45.582;11.484;2023-04-01T06:56:29;13.30;64.10
68766;DHT22;55756;45.582;11.484;2023-04-01T06:59:25;13.40;64.10
68766;DHT22;55756;45.582;11.484;2023-04-01T07:01:59;13.50;64.30
68766;DHT22;55756;45.582;11.484;2023-04-01T07:04:32;13.50;64.50
68766;DHT22;55756;45.582;11.484;2023-04-01T07:07:02;13.60;64.60
68766;DHT22;55756;45.582;11.484;2023-04-01T07:09:39;13.70;64.90
68766;DHT22;55756;45.582;11.484;2023-04-01T07:15:41;13.90;64.50
68766;DHT22;55756;45.582;11.484;2023-04-01T07:18:16;13.90;64.50
68766;DHT22;55756;45.582;11.484;2023-04-01T07:20:44;14.00;64.30
68766;DHT22;55756;45.582;11.484;2023-04-01T07:23:25;14.10;64.80
68766;DHT22;55756;45.582;11.484;2023-04-01T07:26:23;14.20;64.60
68766;DHT22;55756;45.582;11.484;2023-04-01T07:29:12;14.20;63.90
68766;DHT22;55756;45.582;11.484;2023-04-01T07:32:08;14.30;63.70
68766;DHT22;55756;45.582;11.484;2023-04-01T07:34:55;14.30;63.50
68766;DHT22;55756;45.582;11.484;2023-04-01T07:51:20;14.70;63.30
68766;DHT22;55756;45.582;11.484;2023-04-01T07:54:26;14.80;63.00
68766;DHT22;55756;45.582;11.484;2023-04-01T08:00:02;15.00;62.90
68766;DHT22;55756;45.582;11.484;2023-04-01T08:08:00;15.20;63.10
68766;DHT22;55756;45.582;11.484;2023-04-01T08:13:53;15.40;63.20
68766;DHT22;55756;45.582;11.484;2023-04-01T08:19:35;15.50;63.10
68766;DHT22;55756;45.582;11.484;2023-04-01T08:22:14;15.50;63.50
68766;DHT22;55756;45.582;11.484;2023-04-01T08:24:45;15.70;63.60
68766;DHT22;55756;45.582;11.484;2023-04-01T08:30:06;15.70;63.20
68766;DHT22;55756;45.582;11.484;2023-04-01T08:32:43;15.80;63.40
68766;DHT22;55756;45.582;11.484;2023-04-01T08:35:40;15.80;63.60
68766;DHT22;55756;45.582;11.484;2023-04-01T08:38:21;15.90;63.90
68766;DHT22;55756;45.582;11.484;2023-04-01T08:48:53;16.10;63.50
68766;DHT22;55756;45.582;11.484;2023-04-01T08:57:38;16.20;62.20
68766;DHT22;55756;45.582;11.484;2023-04-01T09:00:30;16.20;61.90
68766;DHT22;55756;45.582;11.484;2023-04-01T09:34:07;16.70;60.00
68766;DHT22;55756;45.582;11.484;2023-04-01T09:40:09;16.80;59.80
68766;DHT22;55756;45.582;11.484;2023-04-01T09:45:58;16.90;59.40
68766;DHT22;55756;45.582;11.484;2023-04-01T09:51:42;17.00;59.20
68766;DHT22;55756;45.582;11.484;2023-04-01T10:34:14;17.50;57.70
68766;DHT22;55756;45.582;11.484;2023-04-01T10:36:55;17.50;57.50
68766;DHT22;55756;45.582;11.484;2023-04-01T10:39:33;17.60;57.40
68766;DHT22;55756;45.582;11.484;2023-04-01T10:42:53;17.60;57.10
68766;DHT22;55756;45.582;11.484;2023-04-01T10:51:18;17.70;56.90
68766;DHT22;55756;45.582;11.484;2023-04-01T10:56:59;17.80;56.60
68766;DHT22;55756;45.582;11.484;2023-04-01T11:03:12;17.90;55.80
68766;DHT22;55756;45.582;11.484;2023-04-01T11:11:47;18.00;55.80
68766;DHT22;55756;45.582;11.484;2023-04-01T11:14:33;18.00;55.50
68766;DHT22;55756;45.582;11.484;2023-04-01T11:31:39;18.20;55.70
68766;DHT22;55756;45.582;11.484;2023-04-01T11:40:23;18.40;54.50
68766;DHT22;55756;45.582;11.484;2023-04-01T11:43:45;18.30;54.50
68766;DHT22;55756;45.582;11.484;2023-04-01T11:47:10;18.30;54.60
68766;DHT22;55756;45.582;11.484;2023-04-01T11:56:39;18.40;54.10
68766;DHT22;55756;45.582;11.484;2023-04-01T12:01:48;18.40;53.80
68766;DHT22;55756;45.582;11.484;2023-04-01T12:16:25;18.60;53.90
68766;DHT22;55756;45.582;11.484;2023-04-01T12:18:59;18.60;54.00
68766;DHT22;55756;45.582;11.484;2023-04-01T12:24:36;18.70;54.10
68766;DHT22;55756;45.582;11.484;2023-04-01T12:30:08;18.80;54.10
68766;DHT22;55756;45.582;11.484;2023-04-01T12:36:01;18.90;54.40
68766;DHT22;55756;45.582;11.484;2023-04-01T12:38:48;19.00;54.00
68766;DHT22;55756;45.582;11.484;2023-04-01T12:44:29;19.00;53.50
68766;DHT22;55756;45.582;11.484;2023-04-01T12:49:55;19.10;53.30
68766;DHT22;55756;45.582;11.484;2023-04-01T13:17:33;19.10;52.30
68766;DHT22;55756;45.582;11.484;2023-04-01T13:28:12;19.20;52.30
68766;DHT22;55756;45.582;11.484;2023-04-01T13:35:58;19.30;51.20
68766;DHT22;55756;45.582;11.484;2023-04-01T13:44:16;19.40;50.60
68766;DHT22;55756;45.582;11.484;2023-04-01T13:58:33;19.50;50.10
68766;DHT22;55756;45.582;11.484;2023-04-01T14:01:18;19.60;49.20
68766;DHT22;55756;45.582;11.484;2023-04-01T14:09:45;19.60;49.70
68766;DHT22;55756;45.582;11.484;2023-04-01T14:15:21;19.60;49.80
68766;DHT22;55756;45.582;11.484;2023-04-01T14:34:09;19.70;48.30
68766;DHT22;55756;45.582;11.484;2023-04-01T14:42:18;19.80;47.90
68766;DHT22;55756;45.582;11.484;2023-04-01T14:45:18;19.70;47.70
68766;DHT22;55756;45.582;11.484;2023-04-01T14:47:53;19.70;47.80
68766;DHT22;55756;45.582;11.484;2023-04-01T14:50:21;19.80;47.50
68766;DHT22;55756;45.582;11.484;2023-04-01T14:58:15;19.80;46.20
68766;DHT22;55756;45.582;11.484;2023-04-01T15:05:55;19.80;44.80
68766;DHT22;55756;45.582;11.484;2023-04-01T15:08:29;19.80;45.20
68766;DHT22;55756;45.582;11.484;2023-04-01T15:22:44;19.90;44.10
68766;DHT22;55756;45.582;11.484;2023-04-01T15:25:50;19.90;44.00
68766;DHT22;55756;45.582;11.484;2023-04-01T15:28:20;19.90;44.10
68766;DHT22;55756;45.582;11.484;2023-04-01T15:30:49;19.90;43.80
68766;DHT22;55756;45.582;11.484;2023-04-01T15:41:46;19.90;42.10
68766;DHT22;55756;45.582;11.484;2023-04-01T15:46:58;19.90;41.40
68766;DHT22;55756;45.582;11.484;2023-04-01T15:49:37;19.90;40.10
68766;DHT22;55756;45.582;11.484;2023-04-01T15:52:22;19.90;39.50
68766;DHT22;55756;45.582;11.484;2023-04-01T15:55:27;19.90;39.20
68766;DHT22;55756;45.582;11.484;2023-04-01T16:04:12;19.90;39.10
68766;DHT22;55756;45.582;11.484;2023-04-01T16:22:57;19.90;42.20
68766;DHT22;55756;45.582;11.484;2023-04-01T16:25:39;19.90;42.40
68766;DHT22;55756;45.582;11.484;2023-04-01T16:30:50;19.80;41.70
68766;DHT22;55756;45.582;11.484;2023-04-01T16:42:09;19.70;44.90
68766;DHT22;55756;45.582;11.484;2023-04-01T16:45:01;19.60;45.80
68766;DHT22;55756;45.582;11.484;2023-04-01T16:55:41;19.50;48.00
68766;DHT22;55756;45.582;11.484;2023-04-01T16:58:10;19.50;48.20
68766;DHT22;55756;45.582;11.484;2023-04-01T17:00:51;19.50;48.30
68766;DHT22;55756;45.582;11.484;2023-04-01T17:03:28;19.50;48.50
68766;DHT22;55756;45.582;11.484;2023-04-01T17:06:19;19.40;48.60
68766;DHT22;55756;45.582;11.484;2023-04-01T17:20:12;19.20;49.20
68766;DHT22;55756;45.582;11.484;2023-04-01T17:23:05;19.20;49.30
68766;DHT22;55756;45.582;11.484;2023-04-01T17:25:52;19.10;49.60
68766;DHT22;55756;45.582;11.484;2023-04-01T17:45:01;18.90;51.00
68766;DHT22;55756;45.582;11.484;2023-04-01T17:58:19;18.70;52.00
68766;DHT22;55756;45.582;11.484;2023-04-01T18:04:12;18.60;53.70
68766;DHT22;55756;45.582;11.484;2023-04-01T18:12:25;18.60;56.00
68766;DHT22;55756;45.582;11.484;2023-04-01T18:20:26;18.50;57.60
68766;DHT22;55756;45.582;11.484;2023-04-01T18:25:35;18.50;58.20
68766;DHT22;55756;45.582;11.484;2023-04-01T18:44:31;18.30;58.90
68766;DHT22;55756;45.582;11.484;2023-04-01T18:50:23;18.30;58.80
68766;DHT22;55756;45.582;11.484;2023-04-01T18:55:55;18.30;58.70
68766;DHT22;55756;45.582;11.484;2023-04-01T18:58:35;18.20;58.90
68766;DHT22;55756;45.582;11.484;2023-04-01T19:07:01;18.10;58.90
68766;DHT22;55756;45.582;11.484;2023-04-01T19:09:32;18.10;58.90
68766;DHT22;55756;45.582;11.484;2023-04-01T19:17:17;17.90;58.90
68766;DHT22;55756;45.582;11.484;2023-04-01T19:20:06;17.90;59.00
68766;DHT22;55756;45.582;11.484;2023-04-01T19:23:28;17.90;59.20
68766;DHT22;55756;45.582;11.484;2023-04-01T19:25:47;17.80;59.10
68766;DHT22;55756;45.582;11.484;2023-04-01T19:36:50;17.70;59.00
68766;DHT22;55756;45.582;11.484;2023-04-01T19:47:54;17.70;59.00
68766;DHT22;55756;45.582;11.484;2023-04-01T19:52:57;17.70;58.70
68766;DHT22;55756;45.582;11.484;2023-04-01T20:00:29;17.60;59.00
68766;DHT22;55756;45.582;11.484;2023-04-01T20:03:04;17.50;59.10
68766;DHT22;55756;45.582;11.484;2023-04-01T20:14:45;17.40;58.80
68766;DHT22;55756;45.582;11.484;2023-04-01T20:17:25;17.40;58.70
68766;DHT22;55756;45.582;11.484;2023-04-01T20:23:34;17.30;58.80
68766;DHT22;55756;45.582;11.484;2023-04-01T20:25:47;17.30;58.70
68766;DHT22;55756;45.582;11.484;2023-04-01T20:45:25;17.30;58.00
68766;DHT22;55756;45.582;11.484;2023-04-01T20:48:11;17.20;58.10
68766;DHT22;55756;45.582;11.484;2023-04-01T20:54:21;17.20;58.20
68766;DHT22;55756;45.582;11.484;2023-04-01T20:56:21;17.10;58.30
68766;DHT22;55756;45.582;11.484;2023-04-01T20:58:51;17.20;58.00
68766;DHT22;55756;45.582;11.484;2023-04-01T21:01:44;17.20;57.90
68766;DHT22;55756;45.582;11.484;2023-04-01T21:05:00;17.20;57.80
68766;DHT22;55756;45.582;11.484;2023-04-01T21:07:40;17.20;57.60
68766;DHT22;55756;45.582;11.484;2023-04-01T21:10:37;17.20;57.60
68766;DHT22;55756;45.582;11.484;2023-04-01T21:13:29;17.20;57.60
68766;DHT22;55756;45.582;11.484;2023-04-01T21:16:19;17.20;57.80
68766;DHT22;55756;45.582;11.484;2023-04-01T21:21:37;17.10;57.80
68766;DHT22;55756;45.582;11.484;2023-04-01T21:30:00;17.10;57.60
68766;DHT22;55756;45.582;11.484;2023-04-01T21:32:39;17.10;57.70
68766;DHT22;55756;45.582;11.484;2023-04-01T21:35:08;17.10;57.90
68766;DHT22;55756;45.582;11.484;2023-04-01T21:38:22;17.10;58.00
68766;DHT22;55756;45.582;11.484;2023-04-01T21:43:36;17.20;57.70
68766;DHT22;55756;45.582;11.484;2023-04-01T21:49:06;17.20;57.90
68766;DHT22;55756;45.582;11.484;2023-04-01T22:00:42;17.20;58.20
68766;DHT22;55756;45.582;11.484;2023-04-01T22:13:50;17.10;58.60
68766;DHT22;55756;45.582;11.484;2023-04-01T22:16:53;17.10;58.90
68766;DHT22;55756;45.582;11.484;2023-04-01T22:19:23;17.00;59.00
68766;DHT22;55756;45.582;11.484;2023-04-01T22:24:49;17.00;59.10
68766;DHT22;55756;45.582;11.484;2023-04-01T22:30:18;17.00;59.40
68766;DHT22;55756;45.582;11.484;2023-04-01T22:33:30;16.90;59.40
68766;DHT22;55756;45.582;11.484;2023-04-01T22:43:59;17.00;59.40
68766;DHT22;55756;45.582;11.484;2023-04-01T22:52:10;16.80;59.90
68766;DHT22;55756;45.582;11.484;2023-04-01T22:54:49;16.80;60.20
68766;DHT22;55756;45.582;11.484;2023-04-01T23:00:34;16.80;60.40
68766;DHT22;55756;45.582;11.484;2023-04-01T23:03:09;16.80;60.50
68766;DHT22;55756;45.582;11.484;2023-04-01T23:05:53;16.90;60.30
68766;DHT22;55756;45.582;11.484;2023-04-01T23:10:56;16.80;60.80
68766;DHT22;55756;45.582;11.484;2023-04-01T23:13:39;16.80;60.90
68766;DHT22;55756;45.582;11.484;2023-04-01T23:16:06;16.80;61.00
68766;DHT22;55756;45.582;11.484;2023-04-01T23:18:52;16.80;60.90
68766;DHT22;55756;45.582;11.484;2023-04-01T23:24:49;16.80;61.00
68766;DHT22;55756;45.582;11.484;2023-04-01T23:27:38;16.80;60.90
68766;DHT22;55756;45.582;11.484;2023-04-01T23:33:29;16.70;60.80
68766;DHT22;55756;45.582;11.484;2023-04-01T23:36:13;16.70;60.60
68766;DHT22;55756;45.582;11.484;2023-04-01T23:38:42;16.70;60.60
68766;DHT22;55756;45.582;11.484;2023-04-01T23:41:26;16.70;60.60
68766;DHT22;55756;45.582;11.484;2023-04-01T23:44:02;16.70;60.40
68766;DHT22;55756;45.582;11.484;2023-04-01T23:46:30;16.70;60.40
68766;DHT22;55756;45.582;11.484;2023-04-01T23:48:57;16.70;60.50
68766;DHT22;55756;45.582;11.484;2023-04-01T23:51:27;16.60;60.50
68766;DHT22;55756;45.582;11.484;2023-04-01T23:54:03;16.60;60.60
68766;DHT22;55756;45.582;11.484;2023-04-01T23:56:42;16.60;60.70
68766;DHT22;55756;45.582;11.484;2023-04-01T23:59:17;16.60;60.60
